Time;durP1;ratioP1;P1;durP2;ratioP2;P2;SDS_P1;SDS_P2;PMS_P1;PMS_P2;Temp;Humidity;BMP_temperature;BMP_pressure;BME280_temperature;BME280_humidity;BME280_pressure;Samples;Min_cycle;Max_cycle;Signal;HPM_P1;HPM_P2
2021/11/25 00:01:59;;;;;;;;;;;;;;;3.34;100.00;101380.16;5055639;28;19932;-54
2021/11/25 00:04:26;;;;;;;;;;;;;;;3.33;100.00;101375.88;5055347;28;19931;-50
2021/11/25 00:06:52;;;;;;;;;;;;;;;3.19;100.00;101381.41;5054845;28;19929;-53
2021/11/25 00:09:19;;;;;;;;;;;;;;;3.11;100.00;101366.03;5052780;28;19958;-56
2021/11/25 00:11:46;;;;;;;;;;;;;;;3.10;100.00;101366.94;5068519;28;19925;-55
2021/11/25 00:14:12;;;;;;;;;;;;;;;2.94;100.00;101363.84;5055270;28;20380;-52
2021/11/25 00:16:40;;;;;;;;;;;;;;;3.01;100.00;101356.75;5055134;28;19929;-57
2021/11/25 00:19:07;;;;;;;;;;;;;;;3.03;100.00;101357.59;5052975;28;20322;-56
2021/11/25 00:21:34;;;;;;;;;;;;;;;2.95;100.00;101364.72;5067614;28;20411;-53
2021/11/25 00:24:03;;;;;;;;;;;;;;;2.94;100.00;101361.25;5052200;28;19925;-51
2021/11/25 00:26:30;;;;;;;;;;;;;;;2.91;100.00;101358.75;5053258;28;19928;-47
2021/11/25 00:28:57;;;;;;;;;;;;;;;2.78;100.00;101353.00;5051744;28;19935;-48
2021/11/25 00:31:23;;;;;;;;;;;;;;;2.83;100.00;101358.91;5051776;28;19995;-48
2021/11/25 00:33:50;;;;;;;;;;;;;;;2.87;100.00;101357.13;5054149;28;19924;-52
2021/11/25 00:36:17;;;;;;;;;;;;;;;2.86;100.00;101360.59;5054622;28;19924;-48
2021/11/25 00:38:44;;;;;;;;;;;;;;;2.80;100.00;101360.75;5054765;28;20391;-50
2021/11/25 00:41:10;;;;;;;;;;;;;;;2.82;100.00;101356.38;5053506;28;19933;-50
2021/11/25 00:43:37;;;;;;;;;;;;;;;2.77;100.00;101353.88;5051623;28;19935;-53
2021/11/25 00:46:03;;;;;;;;;;;;;;;2.70;100.00;101353.19;5050784;28;19924;-55
2021/11/25 00:48:30;;;;;;;;;;;;;;;2.69;100.00;101346.28;5053410;28;19929;-55
2021/11/25 00:50:57;;;;;;;;;;;;;;;2.73;100.00;101349.66;5051389;28;20407;-54
2021/11/25 00:53:24;;;;;;;;;;;;;;;2.67;100.00;101340.28;5051805;28;19977;-55
2021/11/25 00:55:50;;;;;;;;;;;;;;;2.67;100.00;101348.06;5054452;28;20425;-54
2021/11/25 00:58:20;;;;;;;;;;;;;;;2.66;100.00;101340.31;5053281;28;19932;-53
2021/11/25 01:00:47;;;;;;;;;;;;;;;2.62;100.00;101342.13;5054273;28;19925;-48
2021/11/25 01:03:14;;;;;;;;;;;;;;;2.52;100.00;101341.50;5069506;28;19933;-54
2021/11/25 01:05:46;;;;;;;;;;;;;;;2.51;100.00;101332.00;5054160;28;19946;-53
2021/11/25 01:08:13;;;;;;;;;;;;;;;2.41;100.00;101332.25;5053145;28;19931;-56
2021/11/25 01:10:40;;;;;;;;;;;;;;;2.37;100.00;101328.84;5067006;28;19929;-51
2021/11/25 01:13:06;;;;;;;;;;;;;;;2.41;100.00;101335.69;5052009;28;19929;-51
2021/11/25 01:15:33;;;;;;;;;;;;;;;2.34;100.00;101332.38;5049724;28;20391;-53
2021/11/25 01:18:10;;;;;;;;;;;;;;;2.34;100.00;101334.97;5051845;28;20402;-50
2021/11/25 01:20:38;;;;;;;;;;;;;;;2.34;100.00;101332.38;5069169;28;19932;-49
2021/11/25 01:23:07;;;;;;;;;;;;;;;2.30;100.00;101328.13;5053741;28;19932;-49
2021/11/25 01:25:34;;;;;;;;;;;;;;;2.25;100.00;101330.00;5066787;28;19929;-49
2021/11/25 01:28:00;;;;;;;;;;;;;;;2.22;100.00;101337.00;5051351;28;19925;-48
2021/11/25 01:30:27;;;;;;;;;;;;;;;2.23;100.00;101336.13;5053759;28;19925;-52
2021/11/25 01:32:54;;;;;;;;;;;;;;;2.20;100.00;101344.81;5053621;28;19936;-56
2021/11/25 01:35:20;;;;;;;;;;;;;;;2.14;100.00;101338.03;5051750;28;19935;-53
2021/11/25 01:37:50;;;;;;;;;;;;;;;2.15;100.00;101334.53;5050960;28;19987;-52
2021/11/25 01:40:17;;;;;;;;;;;;;;;2.16;100.00;101333.66;5050806;28;19929;-56
2021/11/25 01:42:44;;;;;;;;;;;;;;;2.14;100.00;101330.25;5051241;28;19974;-51
2021/11/25 01:45:11;;;;;;;;;;;;;;;2.16;100.00;101333.66;5049684;28;20025;-54
2021/11/25 01:47:45;;;;;;;;;;;;;;;2.17;100.00;101342.31;5050492;28;19944;-54
2021/11/25 01:50:12;;;;;;;;;;;;;;;2.27;100.00;101335.16;5053364;28;20392;-54
2021/11/25 01:52:39;;;;;;;;;;;;;;;2.24;100.00;101332.66;5053244;28;19924;-48
2021/11/25 01:55:06;;;;;;;;;;;;;;;2.20;100.00;101335.28;5050591;28;19932;-56
2021/11/25 01:57:33;;;;;;;;;;;;;;;2.16;100.00;101323.25;5050585;28;19925;-52
2021/11/25 01:59:59;;;;;;;;;;;;;;;2.22;100.00;101324.03;5049400;28;19932;-49
2021/11/25 02:02:26;;;;;;;;;;;;;;;2.20;100.00;101331.84;5049114;28;20040;-53
2021/11/25 02:04:53;;;;;;;;;;;;;;;2.22;100.00;101319.66;5049495;28;20459;-52
2021/11/25 02:07:19;;;;;;;;;;;;;;;2.24;100.00;101319.66;5049873;28;19925;-50
2021/11/25 02:09:46;;;;;;;;;;;;;;;2.25;100.00;101316.16;5049159;28;20434;-49
2021/11/25 02:12:13;;;;;;;;;;;;;;;2.27;100.00;101320.44;5050273;28;19929;-47
2021/11/25 02:14:40;;;;;;;;;;;;;;;2.29;100.00;101321.25;5066611;28;20002;-49
2021/11/25 02:17:06;;;;;;;;;;;;;;;2.35;100.00;101315.06;5050087;28;19928;-49
2021/11/25 02:19:33;;;;;;;;;;;;;;;2.38;100.00;101309.81;5051816;28;19956;-50
2021/11/25 02:22:00;;;;;;;;;;;;;;;2.36;100.00;101309.00;5068470;28;20411;-53
2021/11/25 02:24:27;;;;;;;;;;;;;;;2.40;100.00;101305.44;5065062;28;19960;-49
2021/11/25 02:26:54;;;;;;;;;;;;;;;2.38;100.00;101302.00;5031915;28;19936;-49
2021/11/25 02:29:20;;;;;;;;;;;;;;;2.39;100.00;101290.75;5049219;28;19995;-48
2021/11/25 02:31:49;;;;;;;;;;;;;;;2.41;100.00;101285.50;5049186;28;19925;-49
2021/11/25 02:34:16;;;;;;;;;;;;;;;2.39;100.00;101279.50;5050144;28;19929;-49
2021/11/25 02:36:42;;;;;;;;;;;;;;;2.40;100.00;101278.59;5048735;28;19928;-48
2021/11/25 02:39:09;;;;;;;;;;;;;;;2.43;100.00;101284.59;5048554;28;19929;-51
2021/11/25 02:41:36;;;;;;;;;;;;;;;2.48;100.00;101282.75;5049552;28;19987;-48
2021/11/25 02:44:03;;;;;;;;;;;;;;;2.45;100.00;101276.75;5048944;28;20548;-48
2021/11/25 02:46:29;;;;;;;;;;;;;;;2.48;100.00;101268.88;5049279;28;20574;-47
2021/11/25 02:48:58;;;;;;;;;;;;;;;2.43;100.00;101276.78;5049546;28;19971;-51
2021/11/25 02:51:26;;;;;;;;;;;;;;;2.40;100.00;101269.09;5052164;28;19971;-53
2021/11/25 02:53:53;;;;;;;;;;;;;;;2.38;100.00;101276.06;5052491;28;19955;-49
2021/11/25 02:56:24;;;;;;;;;;;;;;;2.46;100.00;101284.50;5051538;28;19925;-52
2021/11/25 02:58:51;;;;;;;;;;;;;;;2.49;100.00;101270.59;5047293;28;19929;-49
2021/11/25 03:01:19;;;;;;;;;;;;;;;2.44;100.00;101275.91;5047820;28;19928;-49
2021/11/25 03:03:46;;;;;;;;;;;;;;;2.46;100.00;101274.13;5049496;28;20019;-50
2021/11/25 03:06:13;;;;;;;;;;;;;;;2.48;100.00;101274.94;5067233;28;19925;-52
2021/11/25 03:08:39;;;;;;;;;;;;;;;2.52;100.00;101257.53;5052153;28;19925;-48
2021/11/25 03:11:07;;;;;;;;;;;;;;;2.53;100.00;101257.50;5052403;28;19928;-51
2021/11/25 03:13:35;;;;;;;;;;;;;;;2.52;100.00;101250.63;5050639;28;19925;-48
2021/11/25 03:16:02;;;;;;;;;;;;;;;2.51;100.00;101251.50;5052436;28;19931;-48
2021/11/25 03:18:29;;;;;;;;;;;;;;;2.50;100.00;101244.59;5054146;28;19963;-49
2021/11/25 03:20:56;;;;;;;;;;;;;;;2.52;100.00;101247.16;5052143;28;19957;-48
2021/11/25 03:23:24;;;;;;;;;;;;;;;2.53;100.00;101244.50;5053730;28;19951;-55
2021/11/25 03:25:51;;;;;;;;;;;;;;;2.54;100.00;101243.63;5053157;28;19929;-47
2021/11/25 03:28:18;;;;;;;;;;;;;;;2.56;100.00;101237.53;5071205;28;19925;-48
2021/11/25 03:30:44;;;;;;;;;;;;;;;2.56;100.00;101227.16;5071504;28;19925;-54
2021/11/25 03:33:11;;;;;;;;;;;;;;;2.55;100.00;101226.31;5068614;28;19929;-53
2021/11/25 03:35:38;;;;;;;;;;;;;;;2.65;100.00;101221.72;5054040;28;20273;-54
2021/11/25 03:38:05;;;;;;;;;;;;;;;2.57;100.00;101219.31;5054225;28;19932;-53
2021/11/25 03:40:32;;;;;;;;;;;;;;;2.51;100.00;101209.94;5070919;28;19932;-51
2021/11/25 03:42:59;;;;;;;;;;;;;;;2.51;100.00;101209.94;5055838;28;19925;-51
2021/11/25 03:45:26;;;;;;;;;;;;;;;2.51;100.00;101212.53;5054418;28;19975;-51
2021/11/25 03:47:52;;;;;;;;;;;;;;;2.54;100.00;101220.25;5053293;28;19955;-55
2021/11/25 03:50:19;;;;;;;;;;;;;;;2.54;100.00;101230.63;5051500;28;19933;-53
2021/11/25 03:52:45;;;;;;;;;;;;;;;2.57;100.00;101219.31;5052596;28;19932;-54
2021/11/25 03:55:13;;;;;;;;;;;;;;;2.61;100.00;101214.91;5054293;28;19978;-55
2021/11/25 03:57:40;;;;;;;;;;;;;;;2.64;100.00;101214.81;5055388;28;20459;-55
2021/11/25 04:00:10;;;;;;;;;;;;;;;2.65;100.00;101207.00;5055322;28;19925;-53
2021/11/25 04:02:37;;;;;;;;;;;;;;;2.67;100.00;101204.34;5069741;28;19928;-48
2021/11/25 04:05:04;;;;;;;;;;;;;;;2.67;100.00;101204.34;5052815;28;19929;-50
2021/11/25 04:07:31;;;;;;;;;;;;;;;2.66;100.00;101206.09;5052525;28;19929;-47
2021/11/25 04:09:57;;;;;;;;;;;;;;;2.68;100.00;101208.66;5051289;28;19932;-49
2021/11/25 04:12:24;;;;;;;;;;;;;;;2.72;100.00;101204.25;5052450;28;19933;-52
2021/11/25 04:14:51;;;;;;;;;;;;;;;2.74;100.00;101197.25;5050355;28;19952;-46
2021/11/25 04:17:21;;;;;;;;;;;;;;;2.74;100.00;101198.13;5051845;28;19978;-53
2021/11/25 04:19:48;;;;;;;;;;;;;;;2.74;100.00;101202.44;5051943;28;19986;-49
2021/11/25 04:22:17;;;;;;;;;;;;;;;2.77;100.00;101200.63;5052035;28;20382;-50
2021/11/25 04:24:44;;;;;;;;;;;;;;;2.76;100.00;101201.50;5066839;28;19979;-53
2021/11/25 04:27:10;;;;;;;;;;;;;;;2.80;100.00;101200.53;5051089;28;19932;-49
2021/11/25 04:29:40;;;;;;;;;;;;;;;2.78;100.00;101201.47;5051538;28;19932;-51
2021/11/25 04:37:37;;;;;;;;;;;;;;;2.83;100.00;101203.03;5050524;28;19960;-51
2021/11/25 04:40:04;;;;;;;;;;;;;;;2.84;100.00;101204.75;5067212;28;19982;-54
2021/11/25 04:42:31;;;;;;;;;;;;;;;2.82;100.00;101196.16;5051775;28;20007;-55
2021/11/25 04:44:57;;;;;;;;;;;;;;;2.82;100.00;101193.56;5050457;28;19971;-51
2021/11/25 04:47:24;;;;;;;;;;;;;;;2.80;100.00;101197.94;5051878;28;19937;-53
2021/11/25 04:49:51;;;;;;;;;;;;;;;2.74;100.00;101190.31;5052343;28;19929;-51
2021/11/25 04:52:17;;;;;;;;;;;;;;;2.73;100.00;101173.03;5051845;28;19971;-54
2021/11/25 04:54:44;;;;;;;;;;;;;;;2.74;100.00;101177.34;5052078;28;19925;-55
2021/11/25 04:57:10;;;;;;;;;;;;;;;2.74;100.00;101171.28;5054320;28;19928;-51
2021/11/25 04:59:37;;;;;;;;;;;;;;;2.78;100.00;101180.69;5053204;28;20376;-53
2021/11/25 05:02:04;;;;;;;;;;;;;;;2.74;100.00;101174.75;5069667;28;19932;-53
2021/11/25 05:04:31;;;;;;;;;;;;;;;2.76;100.00;101166.91;5054278;28;19978;-54
2021/11/25 05:06:57;;;;;;;;;;;;;;;2.81;100.00;101170.19;5052755;28;19924;-53
2021/11/25 05:09:24;;;;;;;;;;;;;;;2.81;100.00;101163.28;5053511;28;19978;-55
2021/11/25 05:11:51;;;;;;;;;;;;;;;2.84;100.00;101175.34;5051008;28;19932;-52
2021/11/25 05:14:18;;;;;;;;;;;;;;;2.82;100.00;101177.97;5053102;28;19931;-50
2021/11/25 05:16:45;;;;;;;;;;;;;;;2.80;100.00;101171.97;5052241;28;20003;-54
2021/11/25 05:19:15;;;;;;;;;;;;;;;2.85;100.00;101177.88;5050938;28;19929;-55
2021/11/25 05:21:42;;;;;;;;;;;;;;;2.83;100.00;101174.47;5050637;28;19939;-55
2021/11/25 05:24:09;;;;;;;;;;;;;;;2.87;100.00;101170.88;5066553;28;19929;-52
2021/11/25 05:26:36;;;;;;;;;;;;;;;2.88;100.00;101175.19;5050276;28;19925;-53
2021/11/25 05:29:02;;;;;;;;;;;;;;;2.92;100.00;101182.91;5050161;28;19929;-50
2021/11/25 05:31:29;;;;;;;;;;;;;;;2.91;100.00;101186.41;5052374;28;19975;-54
2021/11/25 05:33:56;;;;;;;;;;;;;;;2.95;100.00;101193.22;5068918;28;20024;-54
2021/11/25 05:36:22;;;;;;;;;;;;;;;2.92;100.00;101196.75;5049723;28;19929;-48
2021/11/25 05:38:49;;;;;;;;;;;;;;;2.94;100.00;101196.72;5049367;28;19931;-53
2021/11/25 05:41:16;;;;;;;;;;;;;;;2.94;100.00;101202.75;5050822;28;20257;-54
2021/11/25 05:43:43;;;;;;;;;;;;;;;2.95;100.00;101206.22;5052319;28;20380;-54
2021/11/25 05:46:09;;;;;;;;;;;;;;;2.98;100.00;101195.72;5053354;28;19924;-55
2021/11/25 05:48:36;;;;;;;;;;;;;;;2.99;100.00;101195.69;5050550;28;19925;-55
2021/11/25 05:51:03;;;;;;;;;;;;;;;3.00;100.00;101193.94;5049487;28;19932;-52
2021/11/25 05:53:30;;;;;;;;;;;;;;;2.90;100.00;101190.75;5050660;28;19925;-54
2021/11/25 05:55:56;;;;;;;;;;;;;;;2.80;100.00;101178.91;5051643;28;20633;-56
2021/11/25 05:58:23;;;;;;;;;;;;;;;2.75;100.00;101176.41;5053224;28;19925;-51
2021/11/25 06:00:50;;;;;;;;;;;;;;;2.73;100.00;101174.75;5051956;28;19925;-56
2021/11/25 06:03:23;;;;;;;;;;;;;;;2.78;100.00;101165.97;5051004;28;19925;-53
2021/11/25 06:05:49;;;;;;;;;;;;;;;2.82;100.00;101167.59;5051238;28;19931;-52
2021/11/25 06:08:16;;;;;;;;;;;;;;;2.84;100.00;101160.59;5053040;28;20442;-56
2021/11/25 06:10:43;;;;;;;;;;;;;;;2.89;100.00;101152.69;5066777;28;19940;-52
2021/11/25 06:13:09;;;;;;;;;;;;;;;2.90;100.00;101148.31;5050773;28;19991;-52
2021/11/25 06:15:36;;;;;;;;;;;;;;;2.90;100.00;101141.38;5051655;28;19978;-56
2021/11/25 06:18:02;;;;;;;;;;;;;;;2.87;100.00;101137.09;5052117;28;20338;-55
2021/11/25 06:20:29;;;;;;;;;;;;;;;2.90;100.00;101118.00;5052904;28;20381;-56
2021/11/25 06:22:56;;;;;;;;;;;;;;;2.87;100.00;101121.53;5068098;28;19936;-55
2021/11/25 06:25:23;;;;;;;;;;;;;;;2.86;100.00;101114.66;5051078;28;20423;-52
2021/11/25 06:27:50;;;;;;;;;;;;;;;2.86;100.00;101113.78;5050741;28;19924;-55
2021/11/25 06:30:17;;;;;;;;;;;;;;;2.88;100.00;101114.59;5063863;28;19937;-53
2021/11/25 06:32:45;;;;;;;;;;;;;;;2.83;100.00;101109.50;5049631;28;20384;-52
2021/11/25 06:35:12;;;;;;;;;;;;;;;2.82;100.00;101110.44;5050927;28;20493;-55
2021/11/25 06:37:39;;;;;;;;;;;;;;;2.80;100.00;101112.22;5052800;28;19924;-53
2021/11/25 06:40:07;;;;;;;;;;;;;;;2.81;100.00;101111.31;5066195;28;19929;-55
2021/11/25 06:42:33;;;;;;;;;;;;;;;2.86;100.00;101101.66;5049524;28;20342;-55
2021/11/25 06:45:00;;;;;;;;;;;;;;;2.87;100.00;101105.09;5051838;28;19925;-52
2021/11/25 06:47:26;;;;;;;;;;;;;;;2.90;100.00;101098.97;5048737;28;20337;-54
2021/11/25 06:49:53;;;;;;;;;;;;;;;2.92;100.00;101100.63;5049415;28;19956;-55
2021/11/25 06:52:20;;;;;;;;;;;;;;;2.91;100.00;101098.06;5049711;28;20422;-51
2021/11/25 06:54:46;;;;;;;;;;;;;;;2.94;100.00;101110.97;5049360;28;19925;-54
2021/11/25 06:57:13;;;;;;;;;;;;;;;2.94;100.00;101117.00;5052032;28;19924;-54
2021/11/25 06:59:40;;;;;;;;;;;;;;;2.93;100.00;101119.66;5052565;28;19932;-56
2021/11/25 07:02:07;;;;;;;;;;;;;;;2.95;100.00;101126.50;5052328;28;20387;-55
2021/11/25 07:04:34;;;;;;;;;;;;;;;2.94;100.00;101123.97;5067564;28;19924;-56
2021/11/25 07:07:03;;;;;;;;;;;;;;;2.94;100.00;101122.19;5052507;28;20303;-56
2021/11/25 07:09:29;;;;;;;;;;;;;;;3.00;100.00;101115.97;5050303;28;19948;-56
2021/11/25 07:11:56;;;;;;;;;;;;;;;3.00;100.00;101119.44;5049845;28;19929;-56
2021/11/25 07:14:23;;;;;;;;;;;;;;;3.02;100.00;101122.84;5048809;28;19974;-53
2021/11/25 07:16:49;;;;;;;;;;;;;;;3.07;100.00;101125.31;5065182;28;19931;-53
2021/11/25 07:19:16;;;;;;;;;;;;;;;3.08;100.00;101121.81;5052287;28;19929;-56
2021/11/25 07:21:43;;;;;;;;;;;;;;;3.12;100.00;101123.44;5032648;28;19954;-55
2021/11/25 07:24:18;;;;;;;;;;;;;;;3.10;100.00;101122.63;5049393;28;19951;-54
2021/11/25 07:26:44;;;;;;;;;;;;;;;3.15;100.00;101138.06;5051704;28;19929;-51
2021/11/25 07:29:11;;;;;;;;;;;;;;;3.20;100.00;101141.38;5051100;28;20599;-52
2021/11/25 07:31:38;;;;;;;;;;;;;;;3.18;100.00;101148.38;5048558;28;20452;-53
2021/11/25 07:34:05;;;;;;;;;;;;;;;3.13;100.00;101143.31;5050923;28;19931;-55
2021/11/25 07:36:31;;;;;;;;;;;;;;;3.17;100.00;101146.69;5052068;28;19929;-56
2021/11/25 07:38:58;;;;;;;;;;;;;;;3.17;100.00;101136.28;5067323;28;20011;-54
2021/11/25 07:41:25;;;;;;;;;;;;;;;3.14;100.00;101134.63;5066836;28;19932;-53
2021/11/25 07:43:51;;;;;;;;;;;;;;;3.17;100.00;101136.28;5049109;28;19983;-53
2021/11/25 07:46:18;;;;;;;;;;;;;;;3.16;100.00;101143.25;5050031;28;20380;-52
2021/11/25 07:48:47;;;;;;;;;;;;;;;3.16;100.00;101140.63;5051920;28;19925;-54
2021/11/25 07:51:14;;;;;;;;;;;;;;;3.17;100.00;101131.09;5051711;28;20407;-54
2021/11/25 07:53:40;;;;;;;;;;;;;;;3.17;100.00;101139.72;5049547;28;19928;-55
2021/11/25 07:56:07;;;;;;;;;;;;;;;3.20;100.00;101137.06;5048089;28;19932;-56
2021/11/25 07:58:34;;;;;;;;;;;;;;;3.18;100.00;101136.22;5049531;28;20346;-56
2021/11/25 08:01:02;;;;;;;;;;;;;;;3.21;100.00;101125.75;5049487;28;19982;-56
2021/11/25 08:03:28;;;;;;;;;;;;;;;3.20;100.00;101125.78;5054413;28;19932;-55
2021/11/25 08:05:55;;;;;;;;;;;;;;;3.21;100.00;101119.69;5055305;28;19933;-57
2021/11/25 08:08:22;;;;;;;;;;;;;;;3.22;100.00;101116.22;5055355;28;19932;-48
2021/11/25 08:10:49;;;;;;;;;;;;;;;3.27;100.00;101122.09;5055515;28;19925;-56
2021/11/25 08:13:15;;;;;;;;;;;;;;;3.26;100.00;101120.41;5054424;28;20379;-55
2021/11/25 08:15:42;;;;;;;;;;;;;;;3.32;100.00;101119.38;5049917;28;19929;-52
2021/11/25 08:18:09;;;;;;;;;;;;;;;3.34;100.00;101130.56;5067814;28;20452;-54
2021/11/25 08:20:35;;;;;;;;;;;;;;;3.34;100.00;101127.97;5052841;28;19931;-53
2021/11/25 08:23:02;;;;;;;;;;;;;;;3.36;100.00;101129.63;5052254;28;19935;-55
2021/11/25 08:25:29;;;;;;;;;;;;;;;3.38;100.00;101126.97;5051866;28;19928;-53
2021/11/25 08:27:56;;;;;;;;;;;;;;;3.42;100.00;101131.19;5053282;28;19994;-52
2021/11/25 08:30:24;;;;;;;;;;;;;;;3.46;100.00;101127.59;5054844;28;19932;-52
2021/11/25 08:32:51;;;;;;;;;;;;;;;3.47;100.00;101134.50;5068087;28;19925;-49
2021/11/25 08:35:18;;;;;;;;;;;;;;;3.50;100.00;101120.56;5052645;28;20387;-50
2021/11/25 08:37:45;;;;;;;;;;;;;;;3.52;100.00;101127.41;5051989;28;19929;-51
2021/11/25 08:40:12;;;;;;;;;;;;;;;3.52;100.00;101127.41;5062734;28;19932;-47
2021/11/25 08:42:39;;;;;;;;;;;;;;;3.49;100.00;101124.91;5052840;28;19931;-55
2021/11/25 08:45:07;;;;;;;;;;;;;;;3.55;100.00;101136.88;5066363;28;19929;-51
2021/11/25 08:47:34;;;;;;;;;;;;;;;3.58;100.00;101131.56;5050411;28;19979;-55
2021/11/25 08:50:00;;;;;;;;;;;;;;;3.55;100.00;101122.09;5051455;28;19925;-53
2021/11/25 08:52:27;;;;;;;;;;;;;;;3.59;100.00;101111.63;5044098;28;19929;-54
2021/11/25 08:54:53;;;;;;;;;;;;;;;3.61;100.00;101110.66;5054560;28;19933;-52
2021/11/25 08:57:20;;;;;;;;;;;;;;;3.64;100.00;101113.19;5054283;28;19924;-52
2021/11/25 08:59:47;;;;;;;;;;;;;;;3.67;100.00;101120.03;5054256;28;20423;-53
2021/11/25 09:02:14;;;;;;;;;;;;;;;3.70;100.00;101125.13;5054258;28;19925;-53
2021/11/25 09:04:42;;;;;;;;;;;;;;;3.74;100.00;101118.94;5051505;28;19963;-53
2021/11/25 09:07:08;;;;;;;;;;;;;;;3.75;100.00;101120.63;5051500;28;19929;-53
2021/11/25 09:09:35;;;;;;;;;;;;;;;3.80;100.00;101121.31;5053290;28;19929;-53
2021/11/25 09:12:02;;;;;;;;;;;;;;;3.85;100.00;101123.78;5051268;28;19928;-54
2021/11/25 09:14:29;;;;;;;;;;;;;;;3.89;100.00;101121.03;5051956;28;19924;-54
2021/11/25 09:17:01;;;;;;;;;;;;;;;3.93;100.00;101120.91;5052934;28;19932;-52
2021/11/25 09:19:28;;;;;;;;;;;;;;;3.97;100.00;101122.53;5053390;28;19925;-52
2021/11/25 09:21:55;;;;;;;;;;;;;;;3.99;100.00;101121.56;5051739;28;19932;-55
2021/11/25 09:24:22;;;;;;;;;;;;;;;4.05;100.00;101117.94;5052473;28;19932;-50
2021/11/25 09:26:49;;;;;;;;;;;;;;;4.09;100.00;101118.66;5052753;28;19931;-50
2021/11/25 09:29:16;;;;;;;;;;;;;;;4.11;100.00;101119.47;5049746;28;20384;-55
2021/11/25 09:31:42;;;;;;;;;;;;;;;4.15;100.00;101121.91;5050582;28;19933;-52
2021/11/25 09:34:09;;;;;;;;;;;;;;;4.19;100.00;101113.09;5053593;28;19924;-51
2021/11/25 09:36:37;;;;;;;;;;;;;;;4.22;100.00;101114.75;5051341;28;19925;-56
2021/11/25 09:39:05;;;;;;;;;;;;;;;4.23;100.00;101104.28;5034424;28;20053;-54
2021/11/25 09:41:31;;;;;;;;;;;;;;;4.25;100.00;101112.03;5052436;28;19924;-54
2021/11/25 09:43:58;;;;;;;;;;;;;;;4.28;100.00;101113.69;5049605;28;19929;-55
2021/11/25 09:46:25;;;;;;;;;;;;;;;4.28;100.00;101121.50;5050132;28;19951;-54
2021/11/25 09:48:55;;;;;;;;;;;;;;;4.25;100.00;101122.44;5049965;28;19924;-52
2021/11/25 09:51:25;;;;;;;;;;;;;;;4.23;100.00;101134.69;5033940;28;19924;-49
2021/11/25 09:53:52;;;;;;;;;;;;;;;4.25;100.00;101132.84;5051176;28;19925;-49
2021/11/25 09:56:19;;;;;;;;;;;;;;;4.28;100.00;101139.72;5049460;28;19931;-53
2021/11/25 09:58:47;;;;;;;;;;;;;;;4.33;100.00;101130.84;5051853;28;20364;-49
2021/11/25 10:01:15;;;;;;;;;;;;;;;4.30;100.00;101148.34;5053147;28;19928;-49
2021/11/25 10:03:48;;;;;;;;;;;;;;;4.33;100.00;101148.22;5051614;28;20475;-51
2021/11/25 10:06:16;;;;;;;;;;;;;;;4.32;100.00;101152.59;5049867;28;20023;-54
2021/11/25 10:08:52;;;;;;;;;;;;;;;4.34;100.00;101147.34;5048366;28;19935;-50
2021/11/25 10:11:19;;;;;;;;;;;;;;;4.37;100.00;101152.44;5048369;28;19925;-53
2021/11/25 10:13:48;;;;;;;;;;;;;;;4.34;100.00;101148.19;5048748;28;19929;-52
2021/11/25 10:16:16;;;;;;;;;;;;;;;4.34;100.00;101147.34;5032759;28;19925;-49
2021/11/25 10:18:43;;;;;;;;;;;;;;;4.30;100.00;101136.16;5052934;28;20311;-52
2021/11/25 10:21:14;;;;;;;;;;;;;;;4.32;100.00;101129.16;5051060;28;19932;-53
2021/11/25 10:23:41;;;;;;;;;;;;;;;4.30;100.00;101132.72;5047441;28;19960;-52
2021/11/25 10:26:10;;;;;;;;;;;;;;;4.32;100.00;101130.91;5052822;28;19931;-50
2021/11/25 10:28:43;;;;;;;;;;;;;;;4.31;100.00;101126.59;5050320;28;20618;-54
2021/11/25 10:31:20;;;;;;;;;;;;;;;4.34;100.00;101127.34;5047793;28;20404;-54
2021/11/25 10:39:08;;;;;;;;;;;;;;;4.44;100.00;101122.66;5051258;28;19925;-49
2021/11/25 10:41:36;;;;;;;;;;;;;;;4.47;100.00;101114.75;5049789;28;20016;-49
2021/11/25 10:44:15;;;;;;;;;;;;;;;4.43;100.00;101105.34;5047606;28;19940;-49
2021/11/25 10:46:47;;;;;;;;;;;;;;;4.41;100.00;101112.34;5047468;28;19925;-51
2021/11/25 10:49:14;;;;;;;;;;;;;;;4.47;100.00;101100.88;5052379;28;19925;-51
2021/11/25 10:51:42;;;;;;;;;;;;;;;4.44;100.00;101104.44;5035028;28;20284;-51
2021/11/25 10:54:18;;;;;;;;;;;;;;;4.51;100.00;101099.84;5050374;28;19929;-46
2021/11/25 10:56:50;;;;;;;;;;;;;;;4.59;100.00;101104.81;5049217;28;19936;-52
2021/11/25 10:59:21;;;;;;;;;;;;;;;4.64;100.00;101105.50;5051976;28;19995;-52
2021/11/25 11:01:49;;;;;;;;;;;;;;;4.64;100.00;101105.50;5051145;28;20311;-55
2021/11/25 11:04:16;;;;;;;;;;;;;;;4.66;100.00;101103.66;5049805;28;19929;-53
2021/11/25 11:06:52;;;;;;;;;;;;;;;4.70;100.00;101102.66;5033483;28;19959;-50
2021/11/25 11:09:29;;;;;;;;;;;;;;;4.65;100.00;101099.34;5049076;28;19928;-54
2021/11/25 11:12:14;;;;;;;;;;;;;;;4.62;100.00;101095.13;5049680;28;19932;-54
2021/11/25 11:14:49;;;;;;;;;;;;;;;4.67;100.00;101102.75;5049488;28;19925;-54
2021/11/25 11:17:46;;;;;;;;;;;;;;;4.71;100.00;101099.97;5052160;28;19932;-50
2021/11/25 11:20:15;;;;;;;;;;;;;;;4.81;100.00;101097.88;5051774;28;19925;-51
2021/11/25 11:22:55;;;;;;;;;;;;;;;4.81;100.00;101099.66;5048381;28;20391;-52
2021/11/25 11:25:23;;;;;;;;;;;;;;;4.88;100.00;101088.94;5047915;28;19925;-52
2021/11/25 11:27:50;;;;;;;;;;;;;;;4.91;100.00;101088.81;5049871;28;19971;-53
2021/11/25 11:30:17;;;;;;;;;;;;;;;4.90;100.00;101084.50;5047669;28;19979;-53
2021/11/25 11:32:44;;;;;;;;;;;;;;;5.01;100.00;101084.09;5047986;28;19932;-53
2021/11/25 11:35:11;;;;;;;;;;;;;;;5.03;100.00;101084.91;5050703;28;20292;-48
2021/11/25 11:37:39;;;;;;;;;;;;;;;5.00;100.00;101092.84;5051791;28;19929;-52
2021/11/25 11:40:07;;;;;;;;;;;;;;;5.11;100.00;101096.81;5052902;28;19935;-51
2021/11/25 11:42:49;;;;;;;;;;;;;;;5.15;100.00;101101.00;5052842;28;19931;-50
2021/11/25 11:45:16;;;;;;;;;;;;;;;5.20;100.00;101097.28;5050078;28;20357;-50
2021/11/25 11:47:43;;;;;;;;;;;;;;;5.19;100.00;101095.59;5051829;28;19929;-49
2021/11/25 11:50:10;;;;;;;;;;;;;;;5.19;100.00;101103.41;5053988;28;19925;-48
2021/11/25 11:52:53;;;;;;;;;;;;;;;5.17;100.00;101097.41;5055539;28;19982;-49
2021/11/25 11:55:40;;;;;;;;;;;;;;;5.26;100.00;101101.41;5054202;28;19928;-53
2021/11/25 11:58:24;;;;;;;;;;;;;;;5.29;100.00;101084.81;5054169;28;20414;-52
2021/11/25 12:01:03;;;;;;;;;;;;;;;5.33;100.00;101092.47;5049633;28;20411;-54
2021/11/25 12:03:55;;;;;;;;;;;;;;;5.44;100.00;101084.22;5050604;28;19994;-51
2021/11/25 12:06:48;;;;;;;;;;;;;;;5.40;100.00;101080.03;5052727;28;20299;-51
2021/11/25 12:09:24;;;;;;;;;;;;;;;5.45;100.00;101085.91;5051062;28;19925;-52
2021/11/25 12:11:51;;;;;;;;;;;;;;;5.41;100.00;101077.34;5052086;28;19932;-53
2021/11/25 12:14:28;;;;;;;;;;;;;;;5.48;100.00;101075.34;5055042;28;19928;-53
2021/11/25 12:16:56;;;;;;;;;;;;;;;5.58;100.00;101084.50;5052903;28;20395;-53
2021/11/25 12:19:30;;;;;;;;;;;;;;;5.63;100.00;101073.88;5052187;28;20486;-52
2021/11/25 12:21:58;;;;;;;;;;;;;;;5.64;100.00;101062.53;5051427;28;19975;-53
2021/11/25 12:24:25;;;;;;;;;;;;;;;5.69;100.00;101063.19;5054128;28;19929;-52
2021/11/25 12:26:58;;;;;;;;;;;;;;;5.72;100.00;101059.59;5054912;28;19948;-49
2021/11/25 12:29:34;;;;;;;;;;;;;;;5.77;100.00;101062.88;5054671;28;19924;-50
2021/11/25 12:35:03;;;;;;;;;;;;;;;5.86;100.00;101048.59;5050758;28;19933;-49
2021/11/25 12:37:42;;;;;;;;;;;;;;;5.92;100.00;101053.56;5051124;28;19925;-48
2021/11/25 12:40:15;;;;;;;;;;;;;;;5.91;100.00;101052.69;5051297;28;19928;-49
2021/11/25 12:42:45;;;;;;;;;;;;;;;5.99;100.00;101064.63;5052166;28;20322;-49
2021/11/25 12:45:18;;;;;;;;;;;;;;;5.97;100.00;101050.75;5048662;28;19932;-49
2021/11/25 12:47:45;;;;;;;;;;;;;;;5.95;100.00;101048.19;5050741;28;19925;-52
2021/11/25 12:50:16;;;;;;;;;;;;;;;6.00;100.00;101040.19;5051115;28;20315;-52
2021/11/25 12:52:43;;;;;;;;;;;;;;;6.00;100.00;101040.19;5052991;28;19931;-51
2021/11/25 12:55:10;;;;;;;;;;;;;;;6.13;100.00;101038.75;5054339;28;19979;-51